Time;durP1;ratioP1;P1;durP2;ratioP2;P2;SDS_P1;SDS_P2;PMS_P1;PMS_P2;Temp;Humidity;BMP_temperature;BMP_pressure;BME280_temperature;BME280_humidity;BME280_pressure;Samples;Min_cycle;Max_cycle;Signal;HPM_P1;HPM_P2
2022/05/03 00:01:46;;;;;;;4.38;3.95;;;5.70;99.90;;;;;;4988383;28;20425;-54
2022/05/03 00:04:24;;;;;;;3.50;3.30;;;5.60;99.90;;;;;;4989501;28;20539;-55
2022/05/03 00:06:53;;;;;;;9.60;3.58;;;5.40;99.90;;;;;;5007565;28;20488;-60
2022/05/03 00:09:50;;;;;;;4.65;3.38;;;5.30;99.90;;;;;;4988497;28;20108;-60
2022/05/03 00:12:23;;;;;;;4.28;3.88;;;5.20;99.90;;;;;;4980349;28;20084;-53
2022/05/03 00:14:55;;;;;;;5.10;4.13;;;5.20;99.90;;;;;;4990935;28;20128;-49
2022/05/03 00:17:22;;;;;;;6.75;4.18;;;5.20;99.90;;;;;;4989870;28;20046;-53
2022/05/03 00:19:49;;;;;;;4.43;4.03;;;5.20;99.90;;;;;;4991154;28;20496;-51
2022/05/03 00:22:19;;;;;;;8.60;4.50;;;5.20;99.90;;;;;;4989299;28;20050;-61
2022/05/03 00:24:45;;;;;;;6.38;4.93;;;5.30;99.90;;;;;;4991082;28;20129;-64
2022/05/03 00:27:12;;;;;;;7.32;5.40;;;5.30;99.90;;;;;;4989837;28;20941;-63
2022/05/03 00:29:38;;;;;;;5.40;4.90;;;5.40;99.90;;;;;;4990512;28;20049;-54
2022/05/03 00:32:04;;;;;;;5.68;5.00;;;5.40;99.90;;;;;;4990588;28;20046;-56
2022/05/03 00:34:34;;;;;;;6.45;5.25;;;5.50;99.90;;;;;;4989237;28;20050;-56
2022/05/03 00:37:01;;;;;;;7.65;5.43;;;5.50;99.90;;;;;;5008247;28;20504;-57
2022/05/03 00:39:27;;;;;;;6.70;4.90;;;5.50;99.90;;;;;;4989526;28;20447;-56
2022/05/03 00:42:03;;;;;;;7.53;5.40;;;5.50;99.90;;;;;;4990971;28;20099;-54
2022/05/03 00:44:58;;;;;;;6.13;4.85;;;5.40;99.90;;;;;;4989666;28;20107;-52
2022/05/03 00:47:50;;;;;;;6.82;5.40;;;5.40;99.90;;;;;;4989271;28;20057;-58
2022/05/03 00:50:28;;;;;;;4.15;3.78;;;5.40;99.90;;;;;;4990262;28;20392;-59
2022/05/03 00:53:20;;;;;;;6.75;4.57;;;5.30;99.90;;;;;;4989612;28;20089;-51
2022/05/03 00:55:52;;;;;;;10.98;4.95;;;5.20;99.90;;;;;;4989780;28;20396;-51
2022/05/03 00:58:35;;;;;;;4.50;4.07;;;5.10;99.90;;;;;;4989574;28;20049;-57
2022/05/03 01:01:05;;;;;;;7.47;4.43;;;5.10;99.90;;;;;;4989562;28;20046;-61
2022/05/03 01:04:01;;;;;;;5.65;4.57;;;5.00;99.90;;;;;;5006605;28;20058;-57
2022/05/03 01:06:37;;;;;;;6.32;4.28;;;5.00;99.90;;;;;;4989143;28;20061;-55
2022/05/03 01:09:06;;;;;;;4.80;4.10;;;5.00;99.90;;;;;;4989535;28;20080;-58
2022/05/03 01:11:46;;;;;;;5.90;4.63;;;5.00;99.90;;;;;;4988294;28;20062;-52
2022/05/03 01:14:37;;;;;;;4.50;4.10;;;5.00;99.90;;;;;;4972495;28;20511;-56
2022/05/03 01:17:29;;;;;;;5.07;4.63;;;5.00;99.90;;;;;;4974121;28;20397;-63
2022/05/03 01:20:06;;;;;;;5.63;4.80;;;4.90;99.90;;;;;;4989936;28;20153;-56
2022/05/03 01:23:22;;;;;;;8.73;5.05;;;4.80;99.90;;;;;;4988556;28;20093;-53
2022/05/03 01:26:00;;;;;;;5.63;4.85;;;4.80;99.90;;;;;;4989228;28;20397;-59
2022/05/03 01:28:31;;;;;;;8.90;4.85;;;4.80;99.90;;;;;;4989476;28;20967;-48
2022/05/03 01:31:07;;;;;;;6.85;4.80;;;4.70;99.90;;;;;;4973328;28;20054;-51
2022/05/03 01:33:39;;;;;;;5.22;4.75;;;4.70;99.90;;;;;;4973321;28;20096;-56
2022/05/03 01:36:08;;;;;;;6.72;5.25;;;4.70;99.90;;;;;;4988676;28;20100;-51
2022/05/03 01:38:59;;;;;;;5.95;5.43;;;4.70;99.90;;;;;;4989102;28;20049;-52
2022/05/03 01:41:34;;;;;;;5.15;4.72;;;4.80;99.90;;;;;;4989197;28;20089;-50
2022/05/03 01:44:29;;;;;;;5.57;5.10;;;4.80;99.90;;;;;;4988706;28;20053;-52
2022/05/03 01:47:18;;;;;;;6.22;5.38;;;4.90;99.90;;;;;;4989154;28;20107;-55
2022/05/03 01:50:19;;;;;;;12.60;6.18;;;4.80;99.90;;;;;;4988132;28;20057;-56
2022/05/03 01:53:13;;;;;;;7.80;5.93;;;4.90;99.90;;;;;;4988979;28;20058;-62
2022/05/03 01:56:00;;;;;;;6.50;5.25;;;5.00;99.90;;;;;;4989360;28;20061;-61
2022/05/03 01:58:26;;;;;;;13.48;5.22;;;5.10;99.90;;;;;;4988539;28;20050;-53
2022/05/03 02:01:25;;;;;;;7.75;5.13;;;5.10;99.90;;;;;;4972887;28;20076;-59
2022/05/03 02:03:58;;;;;;;7.20;6.07;;;5.10;99.90;;;;;;4989082;28;20061;-52
2022/05/03 02:06:45;;;;;;;7.63;5.15;;;5.10;99.90;;;;;;4988021;28;20173;-51
2022/05/03 02:09:11;;;;;;;6.95;5.35;;;5.10;99.90;;;;;;4989192;28;20050;-51
2022/05/03 02:11:55;;;;;;;7.78;5.43;;;5.20;99.90;;;;;;4988677;28;20381;-54
2022/05/03 02:14:44;;;;;;;6.60;5.28;;;5.20;99.90;;;;;;4987829;28;20564;-57
2022/05/03 02:17:18;;;;;;;8.38;6.30;;;5.20;99.90;;;;;;4989235;28;20092;-53
2022/05/03 02:20:14;;;;;;;11.45;5.60;;;5.20;99.90;;;;;;4988931;28;20136;-52
2022/05/03 02:22:52;;;;;;;7.00;5.50;;;5.20;99.90;;;;;;4989073;28;20052;-53
2022/05/03 02:25:54;;;;;;;8.65;5.55;;;5.10;99.90;;;;;;4988403;28;20061;-53
2022/05/03 02:28:29;;;;;;;12.43;5.63;;;5.10;99.90;;;;;;4987840;28;20129;-56
2022/05/03 02:30:55;;;;;;;10.15;6.32;;;5.10;99.90;;;;;;5006614;28;20512;-60
2022/05/03 02:33:28;;;;;;;8.27;6.55;;;5.00;99.90;;;;;;4990932;28;20160;-52
2022/05/03 02:35:57;;;;;;;9.52;6.75;;;4.90;99.90;;;;;;5008600;28;20065;-64
2022/05/03 02:39:05;;;;;;;10.82;6.07;;;5.00;99.90;;;;;;4992335;28;20046;-64
2022/05/03 02:41:39;;;;;;;6.90;5.57;;;5.10;99.90;;;;;;5008267;28;20060;-54
2022/05/03 02:44:06;;;;;;;7.70;6.05;;;5.20;99.90;;;;;;4992504;28;20041;-56
2022/05/03 02:46:31;;;;;;;7.00;5.80;;;5.30;99.90;;;;;;4992209;28;20443;-51
2022/05/03 02:49:07;;;;;;;7.22;6.32;;;5.20;99.90;;;;;;4992131;28;20050;-53
2022/05/03 02:51:43;;;;;;;7.63;6.35;;;5.20;99.90;;;;;;5009575;28;20053;-51
2022/05/03 02:54:52;;;;;;;9.70;6.55;;;5.20;99.90;;;;;;4991992;28;20054;-60
2022/05/03 02:57:38;;;;;;;7.50;6.72;;;5.20;99.90;;;;;;5009429;28;20145;-60
2022/05/03 03:03:06;;;;;;;8.67;6.57;;;5.30;99.90;;;;;;4991475;28;20042;-56
2022/05/03 03:05:37;;;;;;;18.83;7.30;;;5.40;99.90;;;;;;4991798;28;20281;-57
2022/05/03 03:08:03;;;;;;;8.55;6.78;;;5.50;99.90;;;;;;5009717;28;20493;-57
2022/05/03 03:10:50;;;;;;;9.93;7.28;;;5.50;99.90;;;;;;4975076;28;20049;-61
2022/05/03 03:13:28;;;;;;;9.90;7.18;;;5.60;99.90;;;;;;4992672;28;20060;-57
2022/05/03 03:15:54;;;;;;;7.82;7.03;;;5.60;99.90;;;;;;4991009;28;20667;-49
2022/05/03 03:18:26;;;;;;;8.02;6.75;;;5.70;99.90;;;;;;4991413;28;20046;-57
2022/05/03 03:20:58;;;;;;;10.10;7.45;;;5.80;99.90;;;;;;4975612;28;20107;-56
2022/05/03 03:23:29;;;;;;;12.07;7.60;;;5.90;99.90;;;;;;4991202;28;20045;-50
2022/05/03 03:25:55;;;;;;;10.32;7.97;;;6.00;99.90;;;;;;4992124;28;20944;-58
2022/05/03 03:28:22;;;;;;;10.32;7.97;;;6.20;99.90;;;;;;4968496;28;20469;-50
2022/05/03 03:30:52;;;;;;;8.90;7.47;;;6.20;99.90;;;;;;4957589;28;20049;-55
2022/05/03 03:33:19;;;;;;;9.63;6.70;;;6.20;99.90;;;;;;5008836;28;20053;-58
2022/05/03 03:35:46;;;;;;;7.55;6.78;;;6.20;99.90;;;;;;4975628;28;20046;-54
2022/05/03 03:38:16;;;;;;;8.85;6.97;;;6.20;99.90;;;;;;5007907;28;20046;-54
2022/05/03 03:40:51;;;;;;;17.75;8.25;;;6.20;99.90;;;;;;4990735;28;20554;-52
2022/05/03 03:43:17;;;;;;;8.35;6.85;;;6.30;99.90;;;;;;4991553;28;20046;-50
2022/05/03 03:45:43;;;;;;;6.35;5.82;;;6.30;99.90;;;;;;4990024;28;20057;-63
2022/05/03 03:48:09;;;;;;;8.13;6.35;;;6.30;99.90;;;;;;5009223;28;20046;-53
2022/05/03 03:50:37;;;;;;;6.57;5.97;;;6.30;99.90;;;;;;4974462;28;20060;-57
2022/05/03 03:53:04;;;;;;;7.50;6.40;;;6.40;99.90;;;;;;5007674;28;20392;-49
2022/05/03 03:55:30;;;;;;;9.25;6.47;;;6.40;99.90;;;;;;4990860;28;20045;-55
2022/05/03 03:57:57;;;;;;;8.68;7.03;;;6.50;99.90;;;;;;5008562;28;20053;-56
2022/05/03 04:00:24;;;;;;;12.70;7.53;;;6.50;99.90;;;;;;5008279;28;20423;-55
2022/05/03 04:02:50;;;;;;;8.40;6.85;;;6.50;99.90;;;;;;4971096;28;20061;-57
2022/05/03 04:05:21;;;;;;;7.90;7.07;;;6.60;99.90;;;;;;4971787;28;20470;-51
2022/05/03 04:07:47;;;;;;;7.20;6.50;;;6.60;99.90;;;;;;4990176;28;20054;-64
2022/05/03 04:10:13;;;;;;;11.50;6.82;;;6.60;99.90;;;;;;4991118;28;20046;-54
2022/05/03 04:12:39;;;;;;;7.55;6.50;;;6.70;99.90;;;;;;4990513;28;20050;-63
2022/05/03 04:15:06;;;;;;;9.57;7.90;;;6.70;99.90;;;;;;5008258;28;20049;-54
2022/05/03 04:17:34;;;;;;;9.40;7.80;;;6.70;99.90;;;;;;4991181;28;20053;-63
2022/05/03 04:20:00;;;;;;;15.43;7.45;;;6.70;99.90;;;;;;4990070;28;20049;-58
2022/05/03 04:22:30;;;;;;;8.63;7.82;;;6.80;99.90;;;;;;4990587;28;20050;-50
2022/05/03 04:24:56;;;;;;;13.25;8.25;;;6.80;99.90;;;;;;5007778;28;20061;-55
2022/05/03 04:27:23;;;;;;;12.07;8.40;;;6.90;99.90;;;;;;4990387;28;20062;-55
2022/05/03 04:29:50;;;;;;;14.02;8.35;;;6.90;99.90;;;;;;4990006;28;20129;-51
2022/05/03 04:32:16;;;;;;;10.30;8.55;;;6.90;99.90;;;;;;4974194;28;20054;-51
2022/05/03 04:34:42;;;;;;;9.90;8.82;;;7.00;99.90;;;;;;4974015;28;20483;-58
2022/05/03 04:37:08;;;;;;;12.15;8.55;;;7.00;99.90;;;;;;4990467;28;20038;-50
2022/05/03 04:39:34;;;;;;;11.55;8.93;;;7.10;99.90;;;;;;5006643;28;20826;-56
2022/05/03 04:42:00;;;;;;;11.93;8.95;;;7.10;99.90;;;;;;4973629;28;20116;-52
2022/05/03 04:44:27;;;;;;;12.30;9.52;;;7.20;99.90;;;;;;4989860;28;20108;-56
2022/05/03 04:46:53;;;;;;;14.27;9.80;;;7.20;99.90;;;;;;4987876;28;20390;-55
2022/05/03 04:49:19;;;;;;;13.82;10.38;;;7.30;99.90;;;;;;4990466;28;20562;-62
2022/05/03 04:51:45;;;;;;;17.48;11.32;;;7.30;99.90;;;;;;5007386;28;20074;-58
2022/05/03 04:54:11;;;;;;;12.25;10.32;;;7.40;99.90;;;;;;5007508;28;20058;-65
2022/05/03 04:56:36;;;;;;;13.93;10.75;;;7.40;99.90;;;;;;4985561;28;20050;-54
2022/05/03 04:59:02;;;;;;;14.35;11.10;;;7.50;99.90;;;;;;4954026;28;20057;-52
2022/05/03 05:01:29;;;;;;;14.82;10.95;;;7.60;99.90;;;;;;4994167;28;20042;-52
2022/05/03 05:03:55;;;;;;;16.33;11.20;;;7.60;99.90;;;;;;4989262;28;20052;-54
2022/05/03 05:06:21;;;;;;;14.05;11.20;;;7.70;99.90;;;;;;5007776;28;20249;-59
2022/05/03 05:08:47;;;;;;;14.45;12.10;;;7.70;99.90;;;;;;4988885;28;20046;-57
2022/05/03 05:11:13;;;;;;;17.23;12.20;;;7.80;99.90;;;;;;4989943;28;20127;-61
2022/05/03 05:13:39;;;;;;;15.90;11.20;;;7.80;99.90;;;;;;4973329;28;20477;-54
2022/05/03 05:16:06;;;;;;;18.17;12.45;;;7.80;99.90;;;;;;4988674;28;20045;-60
2022/05/03 05:18:33;;;;;;;19.98;11.95;;;7.90;99.90;;;;;;4989281;28;20129;-63
2022/05/03 05:21:00;;;;;;;16.88;12.40;;;8.00;99.90;;;;;;5005499;28;20390;-51
2022/05/03 05:23:26;;;;;;;14.50;11.88;;;8.00;99.90;;;;;;4990705;28;20049;-51
2022/05/03 05:25:57;;;;;;;19.33;12.15;;;8.00;99.90;;;;;;4989474;28;20397;-51
2022/05/03 05:28:24;;;;;;;13.35;11.15;;;8.10;99.90;;;;;;4972876;28;20507;-60
2022/05/03 05:30:51;;;;;;;15.27;12.45;;;8.20;99.90;;;;;;4989350;28;20052;-58
2022/05/03 05:33:18;;;;;;;18.70;11.10;;;8.20;99.90;;;;;;4989117;28;20057;-60
2022/05/03 05:35:44;;;;;;;16.75;11.95;;;8.30;99.90;;;;;;5007092;28;20056;-62
2022/05/03 05:38:13;;;;;;;15.38;11.93;;;8.30;99.90;;;;;;4988019;28;20038;-59
2022/05/03 05:40:39;;;;;;;22.45;13.27;;;8.30;99.90;;;;;;5005641;28;20056;-55
2022/05/03 05:43:05;;;;;;;21.73;13.07;;;8.40;99.90;;;;;;4989346;28;20045;-54
2022/05/03 05:45:30;;;;;;;17.17;12.90;;;8.40;99.90;;;;;;4972681;28;20060;-60
2022/05/03 05:47:57;;;;;;;23.75;14.05;;;8.40;99.90;;;;;;4972570;28;20053;-56
2022/05/03 05:50:23;;;;;;;27.20;17.88;;;8.40;99.90;;;;;;4988646;28;20480;-60
2022/05/03 05:55:33;;;;;;;26.60;18.35;;;8.60;99.90;;;;;;5005832;28;20457;-53
2022/05/03 05:57:59;;;;;;;30.08;18.25;;;8.60;99.90;;;;;;4989257;28;20085;-55
2022/05/03 06:00:25;;;;;;;22.77;16.48;;;8.60;99.90;;;;;;4987989;28;20050;-57
2022/05/03 06:02:50;;;;;;;29.98;17.00;;;8.70;99.90;;;;;;4988448;28;20196;-56
2022/05/03 06:05:16;;;;;;;36.53;18.25;;;8.70;99.90;;;;;;4987614;28;20116;-63
2022/05/03 06:07:42;;;;;;;26.27;8.02;;;8.90;99.90;;;;;;4987058;28;20052;-63
2022/05/03 06:10:08;;;;;;;31.90;6.50;;;9.00;99.90;;;;;;4989309;28;20046;-66
2022/05/03 06:12:34;;;;;;;34.83;7.63;;;9.20;99.90;;;;;;4964132;28;20583;-63
2022/05/03 06:14:59;;;;;;;30.77;6.15;;;9.10;99.90;;;;;;4969705;28;20075;-62
2022/05/03 06:17:25;;;;;;;31.83;6.05;;;9.20;99.90;;;;;;4968806;28;20050;-61
2022/05/03 06:19:52;;;;;;;30.85;5.53;;;9.10;99.90;;;;;;4971886;28;20050;-60
2022/05/03 06:22:17;;;;;;;25.17;4.38;;;9.10;99.90;;;;;;4985389;28;20504;-56
2022/05/03 06:24:46;;;;;;;25.73;6.95;;;8.90;99.90;;;;;;4987536;28;20092;-58
2022/05/03 06:27:12;;;;;;;25.83;5.13;;;8.90;99.90;;;;;;4987848;28;20073;-66
2022/05/03 06:29:38;;;;;;;30.67;5.22;;;8.90;99.90;;;;;;4971057;28;20132;-49
2022/05/03 06:32:04;;;;;;;17.50;3.85;;;8.80;99.90;;;;;;4989413;28;20132;-64
2022/05/03 06:34:30;;;;;;;24.80;4.80;;;8.80;99.90;;;;;;4972062;28;20052;-51
2022/05/03 06:36:55;;;;;;;26.10;4.57;;;8.80;99.90;;;;;;4988245;28;20046;-67
2022/05/03 06:39:21;;;;;;;19.73;3.70;;;8.80;99.90;;;;;;4988219;28;20731;-52
2022/05/03 06:41:47;;;;;;;23.13;4.68;;;8.70;99.90;;;;;;4988405;28;20061;-60
2022/05/03 06:44:16;;;;;;;29.48;4.75;;;8.70;99.90;;;;;;4988506;28;20078;-52
2022/05/03 06:46:42;;;;;;;20.20;3.78;;;8.70;99.90;;;;;;4987780;28;20061;-54
2022/05/03 06:49:10;;;;;;;25.83;4.45;;;8.60;99.90;;;;;;4988170;28;20081;-54
2022/05/03 06:51:37;;;;;;;23.70;4.68;;;8.60;99.90;;;;;;4988070;28;20455;-66
2022/05/03 06:54:03;;;;;;;23.63;4.25;;;8.60;99.90;;;;;;4988584;28;20088;-55
2022/05/03 06:56:35;;;;;;;22.90;5.03;;;8.70;99.90;;;;;;5005673;28;20077;-56
2022/05/03 06:59:06;;;;;;;24.98;4.78;;;8.70;99.90;;;;;;4988056;28;20052;-55
2022/05/03 07:01:32;;;;;;;33.35;5.32;;;8.70;99.90;;;;;;4988471;28;20061;-59
2022/05/03 07:03:58;;;;;;;26.20;4.25;;;8.80;99.90;;;;;;4987345;28;20048;-58
2022/05/03 07:06:24;;;;;;;24.45;4.30;;;8.80;99.90;;;;;;4988604;28;20046;-62
2022/05/03 07:08:50;;;;;;;20.40;4.10;;;8.80;99.90;;;;;;5002858;28;20397;-56
2022/05/03 07:11:16;;;;;;;34.17;5.50;;;8.80;99.90;;;;;;4987747;28;20050;-65
2022/05/03 07:13:41;;;;;;;31.73;5.03;;;8.70;99.90;;;;;;5005352;28;20081;-55
2022/05/03 07:16:07;;;;;;;26.75;4.05;;;8.70;99.90;;;;;;4972341;28;20042;-56
2022/05/03 07:24:02;;;;;;;30.60;4.88;;;8.80;99.90;;;;;;4989860;28;20137;-60
2022/05/03 07:26:28;;;;;;;27.77;4.32;;;8.80;99.90;;;;;;4989200;28;20080;-60
2022/05/03 07:28:53;;;;;;;36.35;4.97;;;8.80;99.90;;;;;;4989367;28;20512;-57
2022/05/03 07:31:20;;;;;;;23.42;4.07;;;8.90;99.90;;;;;;4971915;28;20089;-65
2022/05/03 07:33:47;;;;;;;26.92;4.80;;;8.90;99.90;;;;;;4971576;28;20822;-52
2022/05/03 07:36:13;;;;;;;22.95;3.95;;;9.00;99.90;;;;;;5004599;28;20496;-57
2022/05/03 07:38:40;;;;;;;28.45;4.70;;;9.00;99.90;;;;;;4987530;28;20054;-63
2022/05/03 07:41:07;;;;;;;28.02;4.65;;;9.00;99.90;;;;;;4980023;28;21617;-54
2022/05/03 07:43:34;;;;;;;25.90;5.03;;;9.00;99.90;;;;;;4987921;28;20373;-51
2022/05/03 07:46:00;;;;;;;24.65;4.82;;;9.20;99.90;;;;;;4990547;28;20076;-61
2022/05/03 07:48:26;;;;;;;28.75;4.35;;;9.20;99.90;;;;;;4990039;28;20046;-57
2022/05/03 07:50:52;;;;;;;23.92;4.22;;;9.20;99.90;;;;;;4978255;28;20046;-61
2022/05/03 07:53:18;;;;;;;22.15;3.90;;;9.30;99.90;;;;;;4989547;28;20495;-61
2022/05/03 07:55:45;;;;;;;23.88;4.30;;;9.40;99.90;;;;;;4989591;28;20531;-57
2022/05/03 07:58:10;;;;;;;24.20;4.03;;;9.60;99.90;;;;;;5008760;28;20839;-60
2022/05/03 08:00:36;;;;;;;25.67;3.83;;;9.70;99.90;;;;;;4990173;28;20041;-62
2022/05/03 08:03:02;;;;;;;26.75;4.28;;;9.90;99.90;;;;;;4974583;28;20076;-61
2022/05/03 08:05:27;;;;;;;24.27;4.32;;;9.80;99.90;;;;;;4990415;28;20108;-58
2022/05/03 08:07:53;;;;;;;29.55;4.55;;;9.80;99.90;;;;;;4990548;28;20054;-59
2022/05/03 08:10:19;;;;;;;23.33;3.97;;;9.70;99.90;;;;;;4990429;28;20050;-63
2022/05/03 08:12:50;;;;;;;21.80;3.58;;;9.70;99.90;;;;;;4989277;28;20050;-57
2022/05/03 08:15:17;;;;;;;23.85;4.22;;;9.80;99.90;;;;;;4990662;28;20444;-55
2022/05/03 08:17:43;;;;;;;14.20;3.78;;;9.80;99.90;;;;;;4990349;28;20129;-57
2022/05/03 08:20:09;;;;;;;21.58;3.30;;;9.80;99.90;;;;;;4991175;28;20057;-61
2022/05/03 08:22:35;;;;;;;22.33;3.72;;;9.90;99.90;;;;;;4980186;28;20566;-62
2022/05/03 08:25:01;;;;;;;27.67;3.75;;;10.00;99.90;;;;;;4970386;28;20049;-56
2022/05/03 08:27:27;;;;;;;19.83;3.85;;;10.10;99.90;;;;;;4970008;28;20098;-67
2022/05/03 08:29:53;;;;;;;25.92;3.47;;;10.20;99.90;;;;;;4986243;28;20089;-67
2022/05/03 08:32:20;;;;;;;19.33;3.53;;;10.30;99.90;;;;;;5005596;28;20057;-64
2022/05/03 08:34:46;;;;;;;12.02;2.75;;;10.30;99.90;;;;;;4989597;28;20080;-54
2022/05/03 08:42:42;;;;;;;20.15;3.13;;;10.40;98.80;;;;;;4989992;28;20053;-63
2022/05/03 08:45:09;;;;;;;13.77;2.63;;;10.40;99.90;;;;;;4989497;28;20046;-54
2022/05/03 08:47:37;;;;;;;13.13;2.50;;;10.60;99.90;;;;;;4989667;28;20049;-64
2022/05/03 08:50:12;;;;;;;18.17;2.65;;;10.60;96.00;;;;;;4989549;28;20053;-66
2022/05/03 08:52:49;;;;;;;15.27;2.42;;;10.60;99.90;;;;;;5006187;28;20096;-62
2022/05/03 08:55:15;;;;;;;15.82;2.67;;;10.60;99.90;;;;;;5007688;28;20133;-64
2022/05/03 08:57:45;;;;;;;10.45;2.55;;;10.70;99.20;;;;;;4989126;28;20050;-57
2022/05/03 09:00:13;;;;;;;13.52;2.65;;;10.80;97.40;;;;;;4989911;28;20054;-64
2022/05/03 09:02:43;;;;;;;16.77;3.13;;;10.80;94.00;;;;;;4989696;28;20057;-66
2022/05/03 09:05:10;;;;;;;14.48;2.35;;;10.90;96.60;;;;;;4972728;28;20046;-63
2022/05/03 09:07:37;;;;;;;13.32;2.25;;;11.10;95.80;;;;;;4989114;28;20064;-60
2022/05/03 09:10:22;;;;;;;9.52;2.22;;;11.20;91.70;;;;;;4988420;28;20432;-57
2022/05/03 09:12:49;;;;;;;11.50;2.30;;;11.30;87.40;;;;;;4988910;28;20467;-65
2022/05/03 09:15:28;;;;;;;16.08;2.22;;;11.50;92.20;;;;;;4972178;28;20128;-55
2022/05/03 09:17:53;;;;;;;18.13;3.25;;;11.70;90.40;;;;;;4988037;28;20464;-55
2022/05/03 09:24:01;;;;;;;10.57;2.20;;;11.30;72.20;;;;;;5008968;23;20478;-64
2022/05/03 09:26:31;;;;;;;12.35;2.30;;;11.10;87.80;;;;;;4985992;28;20095;-56
2022/05/03 09:29:14;;;;;;;10.30;2.17;;;11.30;84.60;;;;;;4984656;28;20424;-58
2022/05/03 09:31:47;;;;;;;5.75;1.60;;;11.40;83.60;;;;;;4985462;28;20043;-56
2022/05/03 09:34:19;;;;;;;9.05;1.77;;;11.60;77.80;;;;;;4989029;28;20136;-60
2022/05/03 09:37:04;;;;;;;18.30;3.95;;;11.50;61.90;;;;;;4990651;28;20049;-61
2022/05/03 09:39:38;;;;;;;10.43;2.80;;;11.50;82.60;;;;;;4989012;28;20065;-54
2022/05/03 09:42:20;;;;;;;9.85;2.00;;;11.50;78.30;;;;;;4991031;28;20395;-67
2022/05/03 09:44:54;;;;;;;11.45;2.78;;;11.50;77.80;;;;;;4989678;28;20053;-65
2022/05/03 09:47:32;;;;;;;13.18;2.00;;;11.50;76.90;;;;;;4986532;28;20053;-66
2022/05/03 09:49:59;;;;;;;16.45;2.83;;;11.50;71.30;;;;;;5006061;28;20045;-60
2022/05/03 09:52:46;;;;;;;9.97;2.00;;;11.60;78.60;;;;;;5007012;28;20116;-59
2022/05/03 09:55:12;;;;;;;12.95;2.20;;;11.70;74.20;;;;;;4988765;28;20046;-65
2022/05/03 09:57:44;;;;;;;10.32;2.28;;;11.70;72.00;;;;;;4969511;28;20045;-56
2022/05/03 10:00:12;;;;;;;14.38;2.35;;;11.80;69.70;;;;;;4988378;28;20050;-57
2022/05/03 10:02:40;;;;;;;11.52;2.00;;;11.80;79.30;;;;;;4987052;28;20038;-58
2022/05/03 10:05:07;;;;;;;13.55;2.85;;;11.70;66.80;;;;;;4986196;28;20180;-57
2022/05/03 10:07:35;;;;;;;9.13;2.72;;;11.60;70.50;;;;;;4989018;28;20053;-66
2022/05/03 10:10:07;;;;;;;14.88;1.90;;;11.60;82.90;;;;;;5005139;28;20077;-61
2022/05/03 10:12:35;;;;;;;9.32;1.90;;;11.70;76.50;;;;;;4976199;28;20048;-63
2022/05/03 10:15:02;;;;;;;10.07;2.08;;;11.80;64.60;;;;;;4988434;28;20073;-54
2022/05/03 10:20:38;;;;;;;11.23;2.05;;;11.50;54.90;;;;;;5005108;28;20080;-60
2022/05/03 10:23:24;;;;;;;7.32;1.98;;;11.60;78.80;;;;;;4986709;28;20115;-58
2022/05/03 10:25:53;;;;;;;9.95;1.98;;;11.90;77.20;;;;;;4988651;28;20068;-62
2022/05/03 10:28:19;;;;;;;8.93;2.03;;;12.00;72.40;;;;;;5007350;28;20709;-56
2022/05/03 10:31:08;;;;;;;10.85;2.25;;;12.40;82.30;;;;;;5005594;28;20046;-65
2022/05/03 10:33:35;;;;;;;9.63;1.80;;;12.60;67.80;;;;;;4987569;28;20050;-63
2022/05/03 10:36:23;;;;;;;11.45;2.55;;;12.80;63.70;;;;;;5005152;28;20547;-53
2022/05/03 10:38:49;;;;;;;10.13;2.78;;;12.80;49.70;;;;;;4989614;28;20056;-62
2022/05/03 10:41:24;;;;;;;9.05;1.83;;;12.80;47.70;;;;;;4972019;28;20053;-58
2022/05/03 10:43:49;;;;;;;11.18;1.80;;;12.80;50.00;;;;;;4986719;28;20060;-60
2022/05/03 10:46:23;;;;;;;11.85;2.45;;;12.90;41.70;;;;;;4972277;28;20049;-60
2022/05/03 10:49:24;;;;;;;10.63;2.90;;;12.70;41.80;;;;;;4971686;28;20050;-57
2022/05/03 10:51:51;;;;;;;8.80;2.10;;;12.30;43.80;;;;;;4910160;29;20510;-59
2022/05/03 10:54:17;;;;;;;11.73;2.17;;;12.40;47.70;;;;;;4986556;28;20050;-54
2022/05/03 10:57:07;;;;;;;15.70;2.20;;;12.40;43.60;;;;;;4991627;28;20046;-63
2022/05/03 10:59:51;;;;;;;11.52;2.30;;;12.50;47.50;;;;;;4974632;28;20535;-60
2022/05/03 11:02:19;;;;;;;12.43;2.28;;;12.30;41.10;;;;;;4987538;28;20048;-64
2022/05/03 11:05:14;;;;;;;11.30;2.33;;;12.30;49.00;;;;;;4990315;28;20089;-62
2022/05/03 11:07:40;;;;;;;12.15;2.05;;;12.50;45.30;;;;;;5007843;28;20049;-64
2022/05/03 11:10:39;;;;;;;13.65;2.72;;;12.40;46.50;;;;;;4968209;28;20372;-56
2022/05/03 11:13:25;;;;;;;11.45;2.15;;;12.40;54.40;;;;;;4991341;28;20054;-65
2022/05/03 11:16:20;;;;;;;15.35;2.30;;;12.30;40.60;;;;;;4990734;28;20392;-56
2022/05/03 11:18:46;;;;;;;7.40;1.95;;;12.20;51.20;;;;;;4958042;28;20128;-62
2022/05/03 11:21:16;;;;;;;12.57;2.25;;;12.10;44.60;;;;;;4975825;28;20050;-68
2022/05/03 11:23:52;;;;;;;;;;;12.20;48.80;;;;;;4987955;28;20064;-56
2022/05/03 11:26:24;;;;;;;9.90;1.63;;;12.20;58.20;;;;;;4988520;28;19922;-64
2022/05/03 11:28:52;;;;;;;9.70;1.95;;;12.10;51.30;;;;;;4990235;28;20041;-63
2022/05/03 11:31:22;;;;;;;9.63;2.22;;;12.30;54.60;;;;;;4988294;28;20049;-69
2022/05/03 11:33:53;;;;;;;11.13;2.47;;;12.20;51.70;;;;;;4990958;28;20504;-68
2022/05/03 11:36:20;;;;;;;9.57;1.85;;;12.10;45.70;;;;;;4971638;28;20046;-67
2022/05/03 11:38:50;;;;;;;12.40;2.05;;;12.10;46.40;;;;;;4971937;28;20060;-64
2022/05/03 11:41:23;;;;;;;12.25;2.28;;;12.00;57.80;;;;;;4988118;28;20514;-67
2022/05/03 11:43:49;;;;;;;15.43;3.50;;;11.90;49.80;;;;;;5006414;28;20067;-62
2022/05/03 11:46:16;;;;;;;11.20;2.28;;;11.70;52.10;;;;;;4990492;28;20057;-60
2022/05/03 11:48:43;;;;;;;8.98;2.03;;;11.60;51.70;;;;;;4989672;28;20091;-61
2022/05/03 11:56:41;;;;;;;8.85;2.20;;;11.70;52.00;;;;;;4992504;28;20050;-62
2022/05/03 11:59:09;;;;;;;11.05;2.03;;;11.90;59.00;;;;;;4989890;28;20157;-65
2022/05/03 12:01:35;;;;;;;8.70;2.15;;;12.10;49.50;;;;;;4990385;28;20465;-66
2022/05/03 12:04:04;;;;;;;10.48;2.50;;;12.20;54.00;;;;;;4989607;28;20485;-60
2022/05/03 12:06:43;;;;;;;10.18;2.33;;;12.30;47.70;;;;;;5004798;28;20049;-60
2022/05/03 12:09:20;;;;;;;9.15;2.22;;;12.10;35.40;;;;;;4990537;28;20128;-62
2022/05/03 12:14:44;;;;;;;13.82;2.35;;;11.90;58.90;;;;;;4989571;28;20566;-66
2022/05/03 12:17:11;;;;;;;9.20;2.05;;;12.10;53.10;;;;;;5006794;28;20042;-62
2022/05/03 12:19:38;;;;;;;11.00;2.63;;;12.00;52.50;;;;;;4988422;28;20104;-64
2022/05/03 12:22:15;;;;;;;8.20;2.35;;;12.10;47.00;;;;;;4990501;28;20041;-68
2022/05/03 12:24:45;;;;;;;8.98;1.83;;;12.10;51.40;;;;;;4990067;28;20068;-63
2022/05/03 12:27:16;;;;;;;11.55;2.08;;;12.20;45.30;;;;;;4989478;28;20446;-65
2022/05/03 12:29:46;;;;;;;11.68;2.25;;;12.50;58.90;;;;;;4974194;28;20052;-60
2022/05/03 12:32:14;;;;;;;12.73;2.22;;;12.50;39.80;;;;;;4989092;28;20404;-61
2022/05/03 12:34:42;;;;;;;10.05;2.40;;;12.50;41.10;;;;;;4973309;28;20539;-63
2022/05/03 12:37:09;;;;;;;11.02;2.15;;;12.10;38.20;;;;;;4986290;28;20052;-67
2022/05/03 12:39:38;;;;;;;15.75;2.60;;;12.10;42.10;;;;;;5000504;28;20058;-66
2022/05/03 12:42:10;;;;;;;13.20;2.85;;;12.00;50.00;;;;;;4989117;28;20089;-64
2022/05/03 12:44:54;;;;;;;16.83;2.72;;;11.90;52.90;;;;;;4989601;28;20129;-67
2022/05/03 12:47:28;;;;;;;11.02;2.45;;;11.90;54.20;;;;;;4973092;28;20053;-66
2022/05/03 12:49:54;;;;;;;13.70;2.50;;;12.20;50.20;;;;;;4987329;28;20472;-62
2022/05/03 12:52:20;;;;;;;12.90;2.60;;;12.20;49.10;;;;;;4987640;28;20077;-67
2022/05/03 12:54:50;;;;;;;9.60;1.92;;;12.00;40.10;;;;;;4984823;28;20427;-57
2022/05/03 13:00:03;;;;;;;10.98;2.40;;;12.10;43.40;;;;;;4969334;28;20412;-64
2022/05/03 13:02:29;;;;;;;7.50;2.15;;;12.00;44.80;;;;;;4988320;28;20056;-68
2022/05/03 13:04:54;;;;;;;13.15;2.33;;;12.10;39.40;;;;;;4973204;28;20053;-64
2022/05/03 13:07:20;;;;;;;9.07;2.28;;;11.90;40.70;;;;;;4988594;28;20049;-65
2022/05/03 13:09:46;;;;;;;9.15;2.00;;;12.00;51.90;;;;;;5007127;28;20052;-63
2022/05/03 13:12:12;;;;;;;16.38;3.13;;;12.30;48.30;;;;;;4987669;28;20100;-65
2022/05/03 13:14:39;;;;;;;8.52;2.17;;;12.40;40.80;;;;;;4990526;28;20057;-58
2022/05/03 13:17:05;;;;;;;9.60;2.30;;;12.40;42.50;;;;;;4989954;28;20463;-66
2022/05/03 13:19:32;;;;;;;12.27;2.55;;;12.50;46.90;;;;;;4989076;28;20121;-62
2022/05/03 13:21:57;;;;;;;12.40;2.45;;;12.40;40.00;;;;;;4990629;28;20077;-57
2022/05/03 13:24:25;;;;;;;8.77;2.20;;;12.10;29.90;;;;;;4987101;28;20054;-66
2022/05/03 13:26:51;;;;;;;12.25;2.22;;;11.90;34.10;;;;;;4988846;28;20038;-60
2022/05/03 13:29:19;;;;;;;9.35;2.30;;;11.90;43.70;;;;;;4988312;28;20045;-65
2022/05/03 13:31:45;;;;;;;7.75;1.90;;;12.00;36.20;;;;;;4990258;28;20053;-68
2022/05/03 13:34:12;;;;;;;18.85;3.17;;;11.90;41.90;;;;;;4988874;28;20467;-63
2022/05/03 13:42:12;;;;;;;7.57;1.83;;;11.80;46.40;;;;;;5004680;28;20622;-66
2022/05/03 13:44:39;;;;;;;10.35;1.80;;;11.60;59.30;;;;;;5007379;28;20093;-61
2022/05/03 13:47:08;;;;;;;7.97;1.92;;;11.70;48.00;;;;;;4972253;28;20046;-60